createdAt,value
2023-04-16T00:00:39.972Z,19.30
2023-04-16T00:01:42.011Z,20.67
2023-04-16T00:02:44.917Z,20.50
2023-04-16T00:03:47.079Z,18.80
2023-04-16T00:04:50.507Z,18.00
2023-04-16T00:05:55.795Z,19.40
2023-04-16T00:06:58.748Z,23.83
2023-04-16T00:08:00.756Z,19.35
2023-04-16T00:09:04.933Z,22.33
2023-04-16T00:10:08.045Z,21.23
2023-04-16T00:11:11.120Z,21.17
2023-04-16T00:12:12.920Z,18.83
2023-04-16T00:13:15.632Z,21.60
2023-04-16T00:14:17.682Z,17.90
2023-04-16T00:15:20.419Z,18.13
2023-04-16T00:16:25.546Z,16.00
2023-04-16T00:17:28.639Z,16.17
2023-04-16T00:18:30.899Z,15.55
2023-04-16T00:19:33.666Z,16.67
2023-04-16T00:20:35.515Z,18.50
2023-04-16T00:21:38.376Z,21.58
2023-04-16T00:22:40.290Z,17.95
2023-04-16T00:23:43.179Z,21.63
2023-04-16T00:24:46.314Z,18.80
2023-04-16T00:25:49.091Z,20.13
2023-04-16T00:26:51.151Z,19.17
2023-04-16T00:27:53.915Z,27.63
2023-04-16T00:28:55.704Z,24.23
2023-04-16T00:29:58.608Z,24.27
2023-04-16T00:31:01.446Z,26.60
2023-04-16T00:32:06.241Z,29.27
2023-04-16T00:33:08.299Z,22.63
2023-04-16T00:34:11.373Z,26.65
2023-04-16T00:35:13.559Z,25.83
2023-04-16T00:36:16.367Z,25.90
2023-04-16T00:37:18.185Z,23.35
2023-04-16T00:38:20.974Z,29.92
2023-04-16T00:39:26.252Z,28.08
2023-04-16T00:40:30.824Z,24.67
2023-04-16T00:41:32.863Z,26.98
2023-04-16T00:42:37.251Z,23.17
2023-04-16T00:43:39.108Z,22.15
2023-04-16T00:44:41.860Z,19.63
2023-04-16T00:45:44.053Z,20.88
2023-04-16T00:46:47.322Z,19.70
2023-04-16T00:47:49.711Z,21.52
2023-04-16T00:48:54.531Z,25.02
2023-04-16T00:49:56.296Z,27.40
2023-04-16T00:51:01.043Z,23.80
2023-04-16T00:52:03.394Z,32.33
2023-04-16T00:53:06.540Z,27.35
2023-04-16T00:54:08.424Z,26.00
2023-04-16T00:55:13.390Z,21.48
2023-04-16T00:56:17.760Z,19.02
2023-04-16T00:57:23.843Z,24.98
2023-04-16T00:58:26.513Z,21.73
2023-04-16T00:59:30.078Z,27.83
2023-04-16T01:00:31.908Z,20.27
2023-04-16T01:01:34.867Z,19.92
2023-04-16T01:02:36.950Z,21.02
2023-04-16T01:03:41.168Z,20.75
2023-04-16T01:04:43.391Z,18.27
2023-04-16T01:05:49.230Z,19.33
2023-04-16T01:06:51.237Z,21.17
2023-04-16T01:07:54.148Z,19.17
2023-04-16T01:08:55.988Z,19.20
2023-04-16T01:09:58.776Z,20.70
2023-04-16T01:11:00.747Z,20.88
2023-04-16T01:12:05.030Z,23.33
2023-04-16T01:13:06.831Z,22.42
2023-04-16T01:14:09.730Z,23.85
2023-04-16T01:15:11.901Z,20.20
2023-04-16T01:16:14.749Z,22.85
2023-04-16T01:17:16.881Z,21.38
2023-04-16T01:18:20.540Z,18.40
2023-04-16T01:19:22.365Z,16.90
2023-04-16T01:20:25.581Z,17.40
2023-04-16T01:21:28.819Z,19.50
2023-04-16T01:22:31.589Z,15.35
2023-04-16T01:23:34.252Z,18.55
2023-04-16T01:24:39.947Z,18.38
2023-04-16T01:25:45.391Z,19.40
2023-04-16T01:26:48.229Z,18.77
2023-04-16T01:27:50.735Z,20.60
2023-04-16T01:28:53.495Z,21.17
2023-04-16T01:29:56.363Z,25.35
2023-04-16T01:31:08.753Z,21.42
2023-04-16T01:32:32.996Z,22.52
2023-04-16T01:33:34.834Z,20.92
2023-04-16T01:34:37.630Z,19.63
2023-04-16T01:35:40.988Z,23.35
2023-04-16T01:36:45.153Z,21.00
2023-04-16T01:37:46.977Z,19.00
2023-04-16T01:38:50.202Z,18.08
2023-04-16T01:39:52.478Z,19.27
2023-04-16T01:40:57.521Z,22.25
2023-04-16T01:41:59.408Z,18.23
2023-04-16T01:43:02.409Z,18.95
2023-04-16T01:44:04.615Z,19.42
2023-04-16T01:45:08.622Z,21.67
2023-04-16T01:46:16.370Z,21.38
2023-04-16T01:47:19.346Z,22.50
2023-04-16T01:48:21.158Z,24.38
2023-04-16T01:49:24.591Z,30.25
2023-04-16T01:50:26.595Z,50.38
2023-04-16T01:51:29.669Z,38.20
2023-04-16T01:52:33.148Z,33.83
2023-04-16T01:53:37.116Z,28.90
2023-04-16T01:54:39.194Z,26.13
2023-04-16T01:55:42.406Z,24.40
2023-04-16T01:56:44.384Z,22.00
2023-04-16T01:57:47.261Z,26.30
2023-04-16T01:58:49.966Z,23.92
2023-04-16T01:59:54.423Z,25.33
2023-04-16T02:00:57.047Z,21.95
2023-04-16T02:02:02.126Z,22.45
2023-04-16T02:03:04.229Z,26.33
2023-04-16T02:04:08.203Z,27.40
2023-04-16T02:05:10.147Z,26.45
2023-04-16T02:06:12.993Z,25.08
2023-04-16T02:07:14.878Z,25.77
2023-04-16T02:08:19.199Z,30.10
2023-04-16T02:09:22.201Z,34.22
2023-04-16T02:10:25.065Z,44.30
2023-04-16T02:11:27.211Z,35.20
2023-04-16T02:12:31.339Z,30.75
2023-04-16T02:13:33.218Z,31.50
2023-04-16T02:14:36.403Z,39.50
2023-04-16T02:15:38.233Z,32.00
2023-04-16T02:16:41.093Z,27.90
2023-04-16T02:18:10.254Z,24.80
2023-04-16T02:19:13.312Z,36.22
2023-04-16T02:20:18.134Z,24.92
2023-04-16T02:21:28.874Z,25.67
2023-04-16T02:22:30.998Z,34.20
2023-04-16T02:23:35.257Z,27.83
2023-04-16T02:24:37.114Z,27.05
2023-04-16T02:25:45.305Z,29.30
2023-04-16T02:26:48.086Z,31.65
2023-04-16T02:27:53.556Z,32.22
2023-04-16T02:29:09.973Z,33.53
2023-04-16T02:30:18.648Z,33.58
2023-04-16T02:31:22.330Z,36.63
2023-04-16T02:32:25.356Z,33.50
2023-04-16T02:33:27.985Z,30.60
2023-04-16T02:34:36.165Z,29.50
2023-04-16T02:35:39.107Z,28.77
2023-04-16T02:36:42.269Z,26.48
2023-04-16T02:37:44.672Z,26.60
2023-04-16T02:38:48.959Z,28.05
2023-04-16T02:39:51.512Z,28.20
2023-04-16T02:40:54.322Z,29.48
2023-04-16T02:41:56.162Z,35.45
2023-04-16T02:42:59.483Z,29.02
2023-04-16T02:44:01.983Z,31.13
2023-04-16T02:45:05.033Z,51.88
2023-04-16T02:46:06.989Z,37.63
2023-04-16T02:47:09.800Z,31.20
2023-04-16T02:48:11.604Z,29.63
2023-04-16T02:49:14.435Z,31.50
2023-04-16T02:50:16.302Z,31.88
2023-04-16T02:51:19.105Z,31.25
2023-04-16T02:52:21.364Z,36.08
2023-04-16T02:53:24.190Z,38.85
2023-04-16T02:54:27.351Z,32.05
2023-04-16T02:55:30.468Z,30.92
2023-04-16T02:56:32.278Z,33.50
2023-04-16T02:57:35.351Z,32.40
2023-04-16T02:58:37.245Z,32.70
2023-04-16T02:59:40.123Z,34.30
2023-04-16T03:00:42.355Z,31.20
2023-04-16T03:01:45.798Z,32.35
2023-04-16T03:02:47.844Z,31.05
2023-04-16T03:03:50.778Z,32.53
2023-04-16T03:04:52.696Z,37.20
2023-04-16T03:05:55.668Z,46.80
2023-04-16T03:06:57.535Z,50.25
2023-04-16T03:08:00.380Z,44.17
2023-04-16T03:09:02.307Z,36.30
2023-04-16T03:10:08.262Z,35.22
2023-04-16T03:11:10.267Z,31.55
2023-04-16T03:12:13.201Z,30.75
2023-04-16T03:13:15.325Z,32.90
2023-04-16T03:14:20.867Z,32.13
2023-04-16T03:15:22.992Z,29.15
2023-04-16T03:16:26.079Z,28.80
2023-04-16T03:17:28.398Z,29.33
2023-04-16T03:18:32.013Z,28.25
2023-04-16T03:19:33.865Z,29.27
2023-04-16T03:20:36.704Z,29.05
2023-04-16T03:21:38.544Z,30.73
2023-04-16T03:22:41.378Z,31.35
2023-04-16T03:23:43.242Z,32.10
2023-04-16T03:24:46.065Z,32.47
2023-04-16T03:25:49.247Z,30.98
2023-04-16T03:26:54.406Z,31.13
2023-04-16T03:27:58.748Z,30.17
2023-04-16T03:29:02.090Z,29.55
2023-04-16T03:30:07.185Z,29.83
2023-04-16T03:31:11.496Z,33.90
2023-04-16T03:32:13.950Z,30.35
2023-04-16T03:33:16.817Z,31.20
2023-04-16T03:34:18.717Z,28.25
2023-04-16T03:35:21.975Z,30.88
2023-04-16T03:36:25.301Z,40.00
2023-04-16T03:37:27.192Z,30.98
2023-04-16T03:38:29.971Z,31.75
2023-04-16T03:39:33.897Z,33.08
2023-04-16T03:40:36.667Z,32.55
2023-04-16T03:41:39.801Z,32.70
2023-04-16T03:42:42.848Z,34.75
2023-04-16T03:43:44.783Z,32.05
2023-04-16T03:44:47.628Z,32.33
2023-04-16T03:45:50.948Z,33.80
2023-04-16T03:46:57.021Z,32.25
2023-04-16T03:47:59.089Z,40.15
2023-04-16T03:49:02.395Z,35.83
2023-04-16T03:50:04.803Z,34.67
2023-04-16T03:51:07.577Z,36.67
2023-04-16T03:52:09.536Z,34.80
2023-04-16T03:53:12.301Z,37.30
2023-04-16T03:54:14.651Z,30.45
2023-04-16T03:55:21.274Z,34.92
2023-04-16T03:56:23.136Z,42.55
2023-04-16T03:57:29.062Z,30.35
2023-04-16T03:58:36.517Z,31.10
2023-04-16T03:59:39.271Z,41.55
2023-04-16T04:00:41.721Z,30.75
2023-04-16T04:01:48.992Z,32.00
2023-04-16T04:02:51.098Z,29.20
2023-04-16T04:03:56.366Z,34.67
2023-04-16T04:04:58.655Z,34.63
2023-04-16T04:06:01.535Z,32.10
2023-04-16T04:07:05.517Z,33.72
2023-04-16T04:08:08.715Z,27.95
2023-04-16T04:09:11.733Z,30.90
2023-04-16T04:10:14.570Z,43.35
2023-04-16T04:11:17.523Z,33.63
2023-04-16T04:12:20.581Z,33.33
2023-04-16T04:13:24.380Z,35.85
2023-04-16T04:14:28.274Z,31.77
2023-04-16T04:15:30.234Z,25.67
2023-04-16T04:16:33.159Z,31.02
2023-04-16T04:17:35.421Z,27.17
2023-04-16T04:18:38.695Z,34.13
2023-04-16T04:19:47.133Z,42.10
2023-04-16T04:20:54.548Z,39.88
2023-04-16T04:22:00.136Z,34.30
2023-04-16T04:23:02.931Z,45.75
2023-04-16T04:24:05.460Z,39.08
2023-04-16T04:25:10.886Z,47.13
2023-04-16T04:26:12.746Z,40.35
2023-04-16T04:27:16.608Z,43.95
2023-04-16T04:28:18.453Z,47.38
2023-04-16T04:29:22.640Z,49.08
2023-04-16T04:30:25.424Z,51.13
2023-04-16T04:31:28.221Z,48.70
2023-04-16T04:32:31.289Z,53.30
2023-04-16T04:33:34.409Z,38.67
2023-04-16T04:34:36.639Z,52.17
2023-04-16T04:35:39.818Z,50.25
2023-04-16T04:36:43.843Z,48.45
2023-04-16T04:37:48.469Z,49.60
2023-04-16T04:38:53.837Z,48.38
2023-04-16T04:39:57.657Z,51.40
2023-04-16T04:40:59.761Z,42.83
2023-04-16T04:42:05.329Z,51.83
2023-04-16T04:43:07.288Z,37.13
2023-04-16T04:44:10.089Z,36.28
2023-04-16T04:45:13.594Z,52.75
2023-04-16T04:46:17.627Z,56.63
2023-04-16T04:47:19.639Z,54.85
2023-04-16T04:48:26.436Z,49.17
2023-04-16T04:49:30.536Z,48.88
2023-04-16T04:50:33.291Z,49.53
2023-04-16T04:51:35.894Z,54.20
2023-04-16T04:52:39.648Z,51.65
2023-04-16T04:53:42.496Z,53.70
2023-04-16T04:54:45.862Z,46.83
2023-04-16T04:55:50.899Z,48.88
2023-04-16T04:56:56.726Z,46.17
2023-04-16T04:57:58.554Z,42.13
2023-04-16T04:59:02.399Z,50.40
2023-04-16T05:00:04.788Z,55.20
2023-04-16T05:01:17.320Z,47.80
2023-04-16T05:02:22.706Z,43.95
2023-04-16T05:03:25.580Z,48.55
2023-04-16T05:04:27.421Z,55.47
2023-04-16T05:05:30.453Z,48.95
2023-04-16T05:06:32.289Z,45.95
2023-04-16T05:07:35.163Z,48.28
2023-04-16T05:08:37.053Z,55.03
2023-04-16T05:09:39.785Z,46.40
2023-04-16T05:10:41.604Z,46.60
2023-04-16T05:11:44.817Z,43.38
2023-04-16T05:12:48.928Z,55.83
2023-04-16T05:13:52.029Z,56.47
2023-04-16T05:14:53.838Z,53.47
2023-04-16T05:15:56.636Z,59.42
2023-04-16T05:16:59.817Z,55.55
2023-04-16T05:18:02.758Z,52.50
2023-04-16T05:19:04.993Z,55.70
2023-04-16T05:20:09.443Z,56.13
2023-04-16T05:21:11.363Z,52.78
2023-04-16T05:22:14.164Z,52.10
2023-04-16T05:23:16.018Z,49.90
2023-04-16T05:24:18.840Z,50.15
2023-04-16T05:25:21.008Z,46.95
2023-04-16T05:26:23.821Z,51.42
2023-04-16T05:27:25.856Z,50.45
2023-04-16T05:28:28.709Z,44.30
2023-04-16T05:29:30.620Z,48.65
2023-04-16T05:30:33.435Z,47.42
2023-04-16T05:31:35.236Z,48.20
2023-04-16T05:32:40.616Z,52.92
2023-04-16T05:33:42.747Z,53.83
2023-04-16T05:34:45.527Z,48.88
2023-04-16T05:35:47.298Z,48.30
2023-04-16T05:36:50.324Z,47.47
2023-04-16T05:37:52.129Z,45.60
2023-04-16T05:38:54.955Z,42.35
2023-04-16T05:39:56.847Z,48.70
2023-04-16T05:40:59.907Z,45.05
2023-04-16T05:42:01.769Z,50.38
2023-04-16T05:43:04.654Z,47.83
2023-04-16T05:44:06.493Z,45.65
2023-04-16T05:45:10.643Z,43.17
2023-04-16T05:46:12.577Z,37.90
2023-04-16T05:47:15.499Z,49.25
2023-04-16T05:48:20.080Z,38.15
2023-04-16T05:49:23.374Z,40.80
2023-04-16T05:50:25.429Z,47.92
2023-04-16T05:51:28.225Z,38.72
2023-04-16T05:52:30.180Z,35.28
2023-04-16T05:53:33.002Z,44.20
2023-04-16T05:54:34.820Z,42.75
2023-04-16T05:55:37.676Z,36.10
2023-04-16T05:56:39.439Z,40.10
2023-04-16T05:57:42.233Z,41.92
2023-04-16T05:58:44.530Z,45.63
2023-04-16T05:59:47.588Z,33.17
2023-04-16T06:00:49.405Z,33.90
2023-04-16T06:01:52.237Z,39.92
2023-04-16T06:02:54.171Z,36.28
2023-04-16T06:03:58.437Z,36.85
2023-04-16T06:05:01.381Z,30.17
2023-04-16T06:06:03.275Z,40.33
2023-04-16T06:07:06.200Z,30.95
2023-04-16T06:08:08.032Z,34.53
2023-04-16T06:09:11.744Z,30.35
2023-04-16T06:10:13.850Z,31.05
2023-04-16T06:11:16.946Z,34.88
2023-04-16T06:12:18.781Z,34.10
2023-04-16T06:13:21.698Z,30.73
2023-04-16T06:14:23.840Z,30.75
2023-04-16T06:15:26.853Z,28.75
2023-04-16T06:16:28.714Z,28.63
2023-04-16T06:17:31.651Z,30.25
2023-04-16T06:18:33.424Z,27.15
2023-04-16T06:19:37.523Z,26.23
2023-04-16T06:20:39.413Z,25.02
2023-04-16T06:21:42.176Z,25.67
2023-04-16T06:22:44.063Z,29.27
2023-04-16T06:23:46.967Z,27.45
2023-04-16T06:24:48.932Z,26.77
2023-04-16T06:25:51.794Z,30.15
2023-04-16T06:26:54.636Z,29.30
2023-04-16T06:27:57.399Z,30.45
2023-04-16T06:28:59.220Z,26.95
2023-04-16T06:30:02.089Z,26.85
2023-04-16T06:31:04.486Z,26.05
2023-04-16T06:32:09.176Z,26.17
2023-04-16T06:33:12.369Z,25.38
2023-04-16T06:34:14.213Z,25.73
2023-04-16T06:35:20.109Z,24.65
2023-04-16T06:36:22.313Z,24.92
2023-04-16T06:37:25.305Z,24.63
2023-04-16T06:38:27.058Z,24.48
2023-04-16T06:39:30.200Z,24.67
2023-04-16T06:40:32.005Z,25.80
2023-04-16T06:41:34.902Z,24.98
2023-04-16T06:42:36.811Z,24.30
2023-04-16T06:43:39.717Z,23.20
2023-04-16T06:44:41.534Z,22.38
2023-04-16T06:45:44.340Z,23.83
2023-04-16T06:46:46.200Z,22.27
2023-04-16T06:47:49.698Z,22.20
2023-04-16T06:48:51.792Z,24.30
2023-04-16T06:49:54.544Z,21.90
2023-04-16T06:50:57.711Z,22.80
2023-04-16T06:52:00.805Z,23.98
2023-04-16T06:53:02.670Z,21.80
2023-04-16T06:54:05.589Z,23.05
2023-04-16T06:55:09.685Z,21.80
2023-04-16T06:56:12.453Z,20.92
2023-04-16T06:57:14.314Z,19.45
2023-04-16T06:58:17.138Z,20.00
2023-04-16T06:59:18.908Z,19.48
2023-04-16T07:00:21.774Z,19.90
2023-04-16T07:01:23.749Z,18.88
2023-04-16T07:02:26.869Z,20.02
2023-04-16T07:04:31.639Z,19.02
2023-04-16T07:05:34.461Z,17.20
2023-04-16T07:06:37.596Z,15.90
2023-04-16T07:07:40.500Z,17.00
2023-04-16T07:08:42.277Z,16.38
2023-04-16T07:09:45.238Z,16.85
2023-04-16T07:10:47.202Z,17.25
2023-04-16T07:11:50.025Z,18.25
2023-04-16T07:12:51.986Z,18.20
2023-04-16T07:13:54.837Z,15.52
2023-04-16T07:14:56.659Z,17.75
2023-04-16T07:15:59.446Z,19.73
2023-04-16T07:17:01.286Z,20.60
2023-04-16T07:18:04.396Z,19.70
2023-04-16T07:19:06.248Z,19.13
2023-04-16T07:20:10.198Z,19.67
2023-04-16T07:21:12.008Z,19.23
2023-04-16T07:22:16.572Z,19.13
2023-04-16T07:23:18.438Z,19.25
2023-04-16T07:24:21.173Z,19.70
2023-04-16T07:25:24.102Z,19.95
2023-04-16T07:26:26.345Z,19.40
2023-04-16T07:27:29.124Z,19.27
2023-04-16T07:28:31.008Z,20.98
2023-04-16T07:29:33.817Z,19.20
2023-04-16T07:30:36.038Z,22.05
2023-04-16T07:31:39.565Z,23.67
2023-04-16T07:32:41.622Z,22.15
2023-04-16T07:33:44.465Z,21.73
2023-04-16T07:34:46.420Z,22.65
2023-04-16T07:35:49.433Z,22.02
2023-04-16T07:36:51.267Z,23.60
2023-04-16T07:37:55.441Z,22.00
2023-04-16T07:38:59.227Z,23.33
2023-04-16T07:40:01.970Z,22.20
2023-04-16T07:41:04.745Z,23.15
2023-04-16T07:42:06.955Z,22.60
2023-04-16T07:43:10.085Z,22.98
2023-04-16T07:44:12.885Z,22.08
2023-04-16T07:45:16.088Z,23.15
2023-04-16T07:46:17.948Z,22.65
2023-04-16T07:47:21.144Z,23.15
2023-04-16T07:48:22.961Z,21.35
2023-04-16T07:49:26.137Z,22.90
2023-04-16T07:50:29.076Z,22.52
2023-04-16T07:51:31.348Z,22.75
2023-04-16T07:52:34.155Z,23.55
2023-04-16T07:53:37.347Z,23.75
2023-04-16T07:54:40.529Z,23.25
2023-04-16T07:55:42.296Z,21.83
2023-04-16T07:56:45.040Z,22.55
2023-04-16T07:57:46.844Z,20.58
2023-04-16T07:58:49.597Z,21.33
2023-04-16T07:59:52.698Z,19.95
2023-04-16T08:00:55.347Z,21.50
2023-04-16T08:01:58.231Z,21.42
2023-04-16T08:03:00.308Z,21.77
2023-04-16T08:04:03.533Z,21.60
2023-04-16T08:05:06.399Z,21.35
2023-04-16T08:06:09.164Z,21.20
2023-04-16T08:07:11.029Z,18.95
2023-04-16T08:08:13.806Z,19.27
2023-04-16T08:09:17.108Z,19.58
2023-04-16T08:10:20.225Z,18.83
2023-04-16T08:11:23.015Z,19.45
2023-04-16T08:12:24.909Z,20.70
2023-04-16T08:13:27.703Z,20.38
2023-04-16T08:14:30.820Z,19.48
2023-04-16T08:15:33.748Z,19.60
2023-04-16T08:16:35.820Z,19.23
2023-04-16T08:17:39.529Z,19.05
2023-04-16T08:18:41.405Z,19.23
2023-04-16T08:19:44.796Z,19.15
2023-04-16T08:20:46.699Z,18.67
2023-04-16T08:21:49.471Z,19.75
2023-04-16T08:22:52.318Z,18.70
2023-04-16T08:23:54.152Z,17.67
2023-04-16T08:24:58.241Z,17.42
2023-04-16T08:26:01.442Z,18.35
2023-04-16T08:27:15.467Z,17.92
2023-04-16T08:28:21.665Z,16.70
2023-04-16T08:29:26.213Z,16.77
2023-04-16T08:30:29.455Z,15.45
2023-04-16T08:31:31.828Z,17.25
2023-04-16T08:32:34.904Z,15.52
2023-04-16T08:33:36.790Z,14.93
2023-04-16T08:34:39.823Z,15.05
2023-04-16T08:35:41.717Z,16.13
2023-04-16T08:36:44.532Z,17.25
2023-04-16T08:37:47.333Z,15.40
2023-04-16T08:38:49.162Z,15.45
2023-04-16T08:39:51.894Z,15.13
2023-04-16T08:40:55.153Z,13.48
2023-04-16T08:41:58.148Z,14.25
2023-04-16T08:43:01.413Z,12.88
2023-04-16T08:44:09.326Z,13.00
2023-04-16T08:45:14.229Z,13.60
2023-04-16T08:46:18.072Z,13.65
2023-04-16T08:47:22.103Z,12.35
2023-04-16T08:48:25.664Z,12.93
2023-04-16T08:49:27.869Z,12.60
2023-04-16T08:50:30.971Z,14.63
2023-04-16T08:51:35.399Z,12.75
2023-04-16T08:52:39.208Z,12.15
2023-04-16T08:53:48.039Z,11.80
2023-04-16T08:54:57.175Z,14.07
2023-04-16T08:56:05.387Z,16.17
2023-04-16T08:57:07.486Z,14.73
2023-04-16T08:58:15.479Z,16.17
2023-04-16T08:59:17.849Z,16.25
2023-04-16T09:00:21.226Z,12.90
2023-04-16T09:01:25.012Z,12.50
2023-04-16T09:02:28.107Z,11.93
2023-04-16T09:03:31.885Z,12.07
2023-04-16T09:04:37.891Z,13.37
2023-04-16T09:05:41.086Z,14.03
2023-04-16T09:06:43.360Z,15.87
2023-04-16T09:07:47.112Z,11.23
2023-04-16T09:08:49.472Z,10.37
2023-04-16T09:09:54.202Z,10.70
2023-04-16T09:10:56.496Z,10.70
2023-04-16T09:12:00.769Z,12.07
2023-04-16T09:13:02.561Z,12.07
2023-04-16T09:14:05.880Z,9.27
2023-04-16T09:15:10.110Z,8.05
2023-04-16T09:16:13.157Z,8.00
2023-04-16T09:17:16.803Z,9.25
2023-04-16T09:18:20.399Z,9.10
2023-04-16T09:19:22.303Z,8.25
2023-04-16T09:20:25.422Z,9.55
2023-04-16T09:21:27.971Z,11.38
2023-04-16T09:22:30.736Z,9.35
2023-04-16T09:23:32.608Z,9.05
2023-04-16T09:24:35.560Z,8.38
2023-04-16T09:25:38.443Z,8.65
2023-04-16T09:26:43.273Z,7.88
2023-04-16T09:27:50.735Z,7.90
2023-04-16T09:28:52.549Z,17.63
2023-04-16T09:29:55.392Z,13.52
2023-04-16T09:31:08.209Z,8.32
2023-04-16T09:32:12.520Z,9.30
2023-04-16T09:33:22.063Z,7.22
2023-04-16T09:34:24.865Z,5.53
2023-04-16T09:35:26.686Z,5.88
2023-04-16T09:36:29.558Z,5.85
2023-04-16T09:37:31.539Z,8.40
2023-04-16T09:38:47.776Z,7.78
2023-04-16T09:39:54.088Z,7.22
2023-04-16T09:41:08.107Z,7.85
2023-04-16T09:42:09.967Z,7.65
2023-04-16T09:43:15.508Z,7.03
2023-04-16T09:44:17.300Z,7.28
2023-04-16T09:45:20.088Z,7.55
2023-04-16T09:46:22.441Z,7.60
2023-04-16T09:47:27.002Z,8.35
2023-04-16T09:48:30.139Z,7.30
2023-04-16T09:49:35.684Z,7.47
2023-04-16T09:50:37.468Z,6.82
2023-04-16T09:51:42.237Z,7.10
2023-04-16T09:52:45.210Z,6.82
2023-04-16T09:53:48.039Z,7.20
2023-04-16T09:54:50.942Z,7.82
2023-04-16T09:55:53.796Z,7.10
2023-04-16T09:56:57.097Z,7.60
2023-04-16T09:58:01.160Z,6.72
2023-04-16T09:59:05.809Z,7.03
2023-04-16T10:00:09.273Z,6.70
2023-04-16T10:01:13.749Z,7.20
2023-04-16T10:02:16.602Z,7.15
2023-04-16T10:03:19.628Z,7.30
2023-04-16T10:04:22.504Z,7.50
2023-04-16T10:05:26.443Z,7.30
2023-04-16T10:06:31.169Z,7.20
2023-04-16T10:07:34.708Z,7.43
2023-04-16T10:08:37.617Z,7.50
2023-04-16T10:09:39.616Z,6.70
2023-04-16T10:10:42.623Z,6.28
2023-04-16T10:11:45.915Z,6.50
2023-04-16T10:12:47.833Z,5.78
2023-04-16T10:13:51.432Z,7.07
2023-04-16T10:14:54.636Z,5.82
2023-04-16T10:15:57.827Z,6.38
2023-04-16T10:17:00.010Z,6.10
2023-04-16T10:18:03.564Z,6.50
2023-04-16T10:19:05.483Z,6.70
2023-04-16T10:20:08.946Z,6.63
2023-04-16T10:21:12.089Z,5.82
2023-04-16T10:22:15.005Z,6.45
2023-04-16T10:23:16.899Z,6.53
2023-04-16T10:24:20.120Z,6.75
2023-04-16T10:25:22.102Z,6.23
2023-04-16T10:26:25.358Z,6.27
2023-04-16T10:27:27.319Z,6.73
2023-04-16T10:28:30.213Z,6.57
2023-04-16T10:29:33.811Z,6.13
2023-04-16T10:30:37.361Z,5.60
2023-04-16T10:31:40.776Z,5.93
2023-04-16T10:32:42.650Z,5.73
2023-04-16T10:33:46.420Z,5.50
2023-04-16T10:34:48.397Z,5.20
2023-04-16T10:36:01.369Z,4.90
2023-04-16T10:37:10.512Z,4.30
2023-04-16T10:38:22.723Z,4.77
2023-04-16T10:39:28.324Z,5.07
2023-04-16T10:40:30.321Z,5.20
2023-04-16T10:41:33.569Z,5.07
2023-04-16T10:42:35.474Z,7.27
2023-04-16T10:43:42.482Z,5.70
2023-04-16T10:44:46.228Z,5.80
2023-04-16T10:45:50.403Z,5.33
2023-04-16T10:46:56.003Z,5.33
2023-04-16T10:47:57.913Z,5.60
2023-04-16T10:49:02.801Z,5.60
2023-04-16T10:50:16.987Z,8.70
2023-04-16T10:51:27.701Z,5.90
2023-04-16T10:52:30.578Z,5.60
2023-04-16T10:53:33.480Z,5.33
2023-04-16T10:54:37.001Z,5.70
2023-04-16T10:55:39.217Z,4.90
2023-04-16T10:56:42.414Z,5.20
2023-04-16T10:57:54.477Z,5.15
2023-04-16T10:58:56.475Z,5.70
2023-04-16T10:59:59.925Z,6.07
2023-04-16T11:01:07.204Z,5.32
2023-04-16T11:02:13.177Z,5.67
2023-04-16T11:03:16.944Z,5.93
2023-04-16T11:04:31.041Z,5.70
2023-04-16T11:05:46.712Z,6.22
2023-04-16T11:07:02.869Z,5.23
2023-04-16T11:08:14.938Z,5.45
2023-04-16T11:09:45.652Z,5.80
2023-04-16T11:10:48.574Z,6.38
2023-04-16T11:11:50.484Z,5.57
2023-04-16T11:12:54.164Z,7.80
2023-04-16T11:13:57.085Z,6.80
2023-04-16T11:15:01.184Z,5.40
2023-04-16T11:16:04.760Z,5.37
2023-04-16T11:17:07.741Z,5.63
2023-04-16T11:18:11.188Z,5.27
2023-04-16T11:19:16.807Z,4.90
2023-04-16T11:20:23.030Z,5.17
2023-04-16T11:21:25.434Z,5.00
2023-04-16T11:22:28.244Z,5.03
2023-04-16T11:23:30.451Z,4.87
2023-04-16T11:24:33.600Z,5.00
2023-04-16T11:25:35.404Z,5.00
2023-04-16T11:26:38.212Z,6.77
2023-04-16T11:27:40.935Z,4.67
2023-04-16T11:28:43.744Z,5.17
2023-04-16T11:29:47.566Z,4.88
2023-04-16T11:30:50.619Z,5.17
2023-04-16T11:31:55.014Z,4.80
2023-04-16T11:32:58.177Z,4.87
2023-04-16T11:34:01.064Z,5.30
2023-04-16T11:35:04.779Z,8.83
2023-04-16T11:36:07.871Z,6.30
2023-04-16T11:37:09.662Z,5.30
2023-04-16T11:38:12.441Z,5.30
2023-04-16T11:39:14.733Z,6.57
2023-04-16T11:40:17.532Z,6.57
2023-04-16T11:41:20.462Z,5.22
2023-04-16T11:42:24.136Z,5.17
2023-04-16T11:43:26.710Z,4.75
2023-04-16T11:44:30.362Z,4.45
2023-04-16T11:45:33.378Z,4.63
2023-04-16T11:46:38.484Z,4.68
2023-04-16T11:47:46.656Z,4.40
2023-04-16T11:48:50.033Z,5.13
2023-04-16T11:49:53.011Z,4.65
2023-04-16T11:50:57.999Z,4.70
2023-04-16T11:52:01.403Z,4.80
2023-04-16T11:53:05.030Z,4.40
2023-04-16T11:54:10.353Z,4.45
2023-04-16T11:55:14.057Z,4.75
2023-04-16T11:56:17.549Z,4.65
2023-04-16T11:57:25.724Z,4.18
2023-04-16T11:58:27.551Z,4.27
2023-04-16T11:59:30.324Z,4.40
2023-04-16T12:00:35.129Z,4.00
2023-04-16T12:01:39.158Z,4.60
2023-04-16T12:02:42.644Z,4.03
2023-04-16T12:03:49.550Z,4.63
2023-04-16T12:04:54.070Z,4.60
2023-04-16T12:06:07.825Z,4.70
2023-04-16T12:07:11.775Z,4.40
2023-04-16T12:08:28.760Z,5.10
2023-04-16T12:09:31.684Z,5.00
2023-04-16T12:10:35.145Z,4.93
2023-04-16T12:11:41.463Z,4.63
2023-04-16T12:12:44.201Z,4.50
2023-04-16T12:14:08.007Z,4.97
2023-04-16T12:15:11.707Z,4.38
2023-04-16T12:16:19.461Z,4.40
2023-04-16T12:17:22.751Z,4.87
2023-04-16T12:18:27.180Z,5.80
2023-04-16T12:19:31.473Z,6.03
2023-04-16T12:20:39.625Z,4.77
2023-04-16T12:21:43.988Z,4.77
2023-04-16T12:22:47.383Z,4.30
2023-04-16T12:23:54.621Z,5.67
2023-04-16T12:24:59.649Z,5.10
2023-04-16T12:26:10.629Z,4.77
2023-04-16T12:27:12.974Z,4.50
2023-04-16T12:28:16.599Z,4.57
2023-04-16T12:29:20.532Z,4.70
2023-04-16T12:30:24.308Z,3.97
2023-04-16T12:31:37.164Z,4.00
2023-04-16T12:32:40.021Z,4.50
2023-04-16T12:33:42.490Z,3.67
2023-04-16T12:34:52.423Z,4.47
2023-04-16T12:35:55.193Z,4.20
2023-04-16T12:37:09.390Z,4.40
2023-04-16T12:38:15.016Z,3.97
2023-04-16T12:39:17.804Z,4.00
2023-04-16T12:40:19.613Z,3.83
2023-04-16T12:41:22.433Z,3.70
2023-04-16T12:42:24.225Z,3.80
2023-04-16T12:43:27.547Z,3.97
2023-04-16T12:44:29.518Z,3.73
2023-04-16T12:45:32.300Z,4.33
2023-04-16T12:46:34.112Z,4.23
2023-04-16T12:47:36.986Z,3.73
2023-04-16T12:48:38.800Z,3.77
2023-04-16T12:49:41.772Z,3.60
2023-04-16T12:50:46.018Z,3.80
2023-04-16T12:51:48.792Z,4.07
2023-04-16T12:52:50.751Z,3.83
2023-04-16T12:53:54.064Z,3.90
2023-04-16T12:54:56.272Z,3.93
2023-04-16T12:55:59.453Z,3.90
2023-04-16T12:57:01.652Z,4.00
2023-04-16T12:58:04.482Z,3.60
2023-04-16T12:59:06.327Z,4.20
2023-04-16T13:00:10.935Z,4.33
2023-04-16T13:01:12.848Z,4.07
2023-04-16T13:02:15.752Z,4.67
2023-04-16T13:03:18.776Z,3.73
2023-04-16T13:04:22.021Z,4.30
2023-04-16T13:05:26.695Z,3.77
2023-04-16T13:06:31.410Z,4.07
2023-04-16T13:07:34.238Z,4.30
2023-04-16T13:08:36.147Z,3.87
2023-04-16T13:09:39.880Z,4.10
2023-04-16T13:10:41.935Z,3.50
2023-04-16T13:11:44.700Z,3.97
2023-04-16T13:12:46.675Z,3.50
2023-04-16T13:13:49.571Z,3.93
2023-04-16T13:14:51.384Z,3.80
2023-04-16T13:15:54.276Z,3.77
2023-04-16T13:16:57.069Z,3.90
2023-04-16T13:17:58.947Z,3.80
2023-04-16T13:19:02.522Z,4.00
2023-04-16T13:20:05.026Z,4.17
2023-04-16T13:21:07.946Z,4.00
2023-04-16T13:22:11.276Z,4.40
2023-04-16T13:23:14.200Z,4.10
2023-04-16T13:24:16.047Z,4.20
2023-04-16T13:25:18.887Z,3.97
2023-04-16T13:26:22.186Z,4.20
2023-04-16T13:27:24.049Z,3.80
2023-04-16T13:28:27.478Z,3.77
2023-04-16T13:29:30.447Z,3.90
2023-04-16T13:30:33.448Z,4.20
2023-04-16T13:31:36.982Z,4.13
2023-04-16T13:32:38.881Z,3.93
2023-04-16T13:33:41.643Z,4.00
2023-04-16T13:34:43.686Z,4.10
2023-04-16T13:35:46.493Z,3.90
2023-04-16T13:36:48.550Z,3.77
2023-04-16T13:37:53.077Z,5.13
2023-04-16T13:38:54.872Z,4.30
2023-04-16T13:39:57.630Z,4.87
2023-04-16T13:40:59.525Z,4.60
2023-04-16T13:42:02.703Z,4.70
2023-04-16T13:43:06.605Z,4.17
2023-04-16T13:44:10.445Z,3.97
2023-04-16T13:45:12.344Z,4.63
2023-04-16T13:46:15.126Z,3.90
2023-04-16T13:47:17.474Z,3.90
2023-04-16T13:48:20.350Z,4.40